HRHO2: North Canadian River

                                SHEF ID:       HRHO2     North Canadian River near Harrah
STATION TYPE:
Regulating: Stage = 15.00, Flow = 8563

STAGE RIV-FLOW WTR-TEMP DIS-OXY PH CONDUCT BAT-LOAD
ft cfs F mg/l su umho/cm volt
Ccp-Rev Ccp-Rev Ccp-Rev Ccp-Rev Ccp-Rev Ccp-Rev Ccp-Rev
(America/Chicago)
04/28 00:00 3.34 142 76.41 5.81 7.80 824 12.07
04/28 01:00 3.33 140 75.40 5.56 7.73 825 12.07
04/28 02:00 3.33 140 74.34 6.09 7.68 827 12.05
04/28 03:00 3.33 140 73.44 6.05 7.63 828 12.06
04/28 04:00 3.32 138 72.63 6.02 7.61 830 12.04
04/28 05:00 3.32 138 71.76 6.10 7.59 831 12.03
04/28 06:00 3.32 138 70.99 6.03 7.58 830 12.02
04/28 07:00 3.32 138 70.52 6.18 7.57 831 12.01
04/28 08:00 3.32 138 70.02 6.56 7.59 830 12.00
04/28 09:00 3.32 138 69.82 6.67 7.61 830 12.04
04/28 10:00 3.32 138 70.09 7.32 7.64 830 12.11
04/28 11:00 3.32 138 70.74 7.76 7.71 829 12.46
04/28 12:00 3.32 138 72.46 8.14 7.76 830 12.93
04/28 13:00 3.32 138 74.52 8.33 7.82 832 13.01
04/28 14:00 3.32 138 76.41 8.71 7.84 832 12.90
04/28 15:00 3.32 138 77.58 8.67 7.89 828 13.06
04/28 16:00 3.32 138 77.16 8.76 7.93 826 12.99
04/28 17:00 3.32 138 76.51 9.06 7.99 825 13.16
04/28 18:00 3.31 136 75.72 8.93 8.02 823 13.13
04/28 19:00 3.31 136 74.46 8.63 8.02 822 12.84
04/28 20:00 3.30 135 73.17 8.05 7.99 821 12.67
04/28 21:00 3.29 133 71.89 7.65 7.95 822 12.43
04/28 22:00 3.29 133 70.38 7.34 7.87 821 12.25
04/28 23:00 3.29 133 69.69 7.27 7.83 821 12.11
Data processed at Wed 29Apr2026 04:25 GMT

NOTICE: If you are parsing this page

Please convert to using our Data API. Starting early 2026 we will be migrating to: https://water.usace.army.mil with modern pages rendered in JavaScript. When this migration completes you will no longer be able to scrape this page! CWMSDataAPI (CDA)

Timeseries IDs (TSIDs)

TSIDs used from left to right in the data table
HARR.Stage.Inst.1Hour.0.Ccp-Rev
HARR.Flow.Inst.1Hour.0.Ccp-Rev
HARR.Temp-Water.Inst.1Hour.0.Ccp-Rev
HARR.Conc-DO.Inst.1Hour.0.Ccp-Rev
HARR.pH.Inst.1Hour.0.Ccp-Rev
HARR.Cond-Water.Inst.1Hour.0.Ccp-Rev
HARR.Volt-Battery Load.Inst.1Hour.0.Ccp-Rev

                            

All information presented herein is the property of the government of the United States of America and may be revised or deleted at any time without prior notice. Dissemination of this information without the expressed written consent of the Public Affairs Office, Tulsa District U.S. Army Corps of Engineers is strictly prohibited. These data are gathered electronically and, as presented, have NOT undergone any form of quality control. These data are NOT guaranteed to be valid or correct.